sensor_id;sensor_type;location;lat;lon;timestamp;P1;P2;P0
69224;PMS1003;56333;51.306;17.056;2023-04-24T00:00:38;8.20;6.60;
69224;PMS1003;56333;51.306;17.056;2023-04-24T00:02:07;7.70;5.60;
69224;PMS1003;56333;51.306;17.056;2023-04-24T00:03:36;7.80;6.10;
69224;PMS1003;56333;51.306;17.056;2023-04-24T00:05:06;9.20;6.40;
69224;PMS1003;56333;51.306;17.056;2023-04-24T00:06:37;7.70;6.80;
69224;PMS1003;56333;51.306;17.056;2023-04-24T00:08:08;9.90;7.70;
69224;PMS1003;56333;51.306;17.056;2023-04-24T00:09:37;9.80;6.70;
69224;PMS1003;56333;51.306;17.056;2023-04-24T00:11:06;8.30;6.60;
69224;PMS1003;56333;51.306;17.056;2023-04-24T00:12:35;8.60;6.60;
69224;PMS1003;56333;51.306;17.056;2023-04-24T00:14:04;8.90;6.60;
69224;PMS1003;56333;51.306;17.056;2023-04-24T00:15:32;8.20;6.60;
69224;PMS1003;56333;51.306;17.056;2023-04-24T00:17:02;10.10;7.20;
69224;PMS1003;56333;51.306;17.056;2023-04-24T00:18:31;9.80;6.60;
69224;PMS1003;56333;51.306;17.056;2023-04-24T00:19:59;9.90;7.40;
69224;PMS1003;56333;51.306;17.056;2023-04-24T00:21:30;10.20;7.90;
69224;PMS1003;56333;51.306;17.056;2023-04-24T00:22:59;13.30;8.60;
69224;PMS1003;56333;51.306;17.056;2023-04-24T00:24:28;12.10;8.10;
69224;PMS1003;56333;51.306;17.056;2023-04-24T00:25:57;11.40;8.70;
69224;PMS1003;56333;51.306;17.056;2023-04-24T00:27:25;11.00;8.40;
69224;PMS1003;56333;51.306;17.056;2023-04-24T00:28:54;14.20;9.10;
69224;PMS1003;56333;51.306;17.056;2023-04-24T00:30:23;13.90;9.80;
69224;PMS1003;56333;51.306;17.056;2023-04-24T00:31:52;13.60;9.50;
69224;PMS1003;56333;51.306;17.056;2023-04-24T00:33:22;12.50;9.60;
69224;PMS1003;56333;51.306;17.056;2023-04-24T00:34:51;14.20;9.30;
69224;PMS1003;56333;51.306;17.056;2023-04-24T00:36:20;13.00;9.50;
69224;PMS1003;56333;51.306;17.056;2023-04-24T00:37:50;13.20;9.00;
69224;PMS1003;56333;51.306;17.056;2023-04-24T00:39:19;15.30;9.90;
69224;PMS1003;56333;51.306;17.056;2023-04-24T00:40:48;13.40;9.70;
69224;PMS1003;56333;51.306;17.056;2023-04-24T00:42:18;12.30;9.70;
69224;PMS1003;56333;51.306;17.056;2023-04-24T00:43:47;12.90;9.70;
69224;PMS1003;56333;51.306;17.056;2023-04-24T00:45:17;13.20;9.40;
69224;PMS1003;56333;51.306;17.056;2023-04-24T00:46:47;15.30;11.60;
69224;PMS1003;56333;51.306;17.056;2023-04-24T00:48:21;12.70;9.50;
69224;PMS1003;56333;51.306;17.056;2023-04-24T00:49:50;12.10;9.60;
69224;PMS1003;56333;51.306;17.056;2023-04-24T00:51:19;12.70;9.10;
69224;PMS1003;56333;51.306;17.056;2023-04-24T00:52:50;13.80;9.30;
69224;PMS1003;56333;51.306;17.056;2023-04-24T00:54:19;13.00;9.50;
69224;PMS1003;56333;51.306;17.056;2023-04-24T00:55:47;12.50;9.40;
69224;PMS1003;56333;51.306;17.056;2023-04-24T00:57:16;12.70;9.50;
69224;PMS1003;56333;51.306;17.056;2023-04-24T00:58:46;12.10;9.50;
69224;PMS1003;56333;51.306;17.056;2023-04-24T01:00:16;12.90;11.30;
69224;PMS1003;56333;51.306;17.056;2023-04-24T01:01:46;13.00;9.40;
69224;PMS1003;56333;51.306;17.056;2023-04-24T01:03:15;12.50;9.70;
69224;PMS1003;56333;51.306;17.056;2023-04-24T01:04:44;13.10;9.10;
69224;PMS1003;56333;51.306;17.056;2023-04-24T01:06:13;14.10;10.20;
69224;PMS1003;56333;51.306;17.056;2023-04-24T01:07:44;14.00;10.20;
69224;PMS1003;56333;51.306;17.056;2023-04-24T01:09:14;12.10;9.70;
69224;PMS1003;56333;51.306;17.056;2023-04-24T01:10:45;13.20;9.80;
69224;PMS1003;56333;51.306;17.056;2023-04-24T01:12:15;13.60;10.80;
69224;PMS1003;56333;51.306;17.056;2023-04-24T01:13:45;13.40;10.20;
69224;PMS1003;56333;51.306;17.056;2023-04-24T01:15:14;14.20;11.00;
69224;PMS1003;56333;51.306;17.056;2023-04-24T01:16:43;13.50;10.90;
69224;PMS1003;56333;51.306;17.056;2023-04-24T01:18:12;17.20;10.80;
69224;PMS1003;56333;51.306;17.056;2023-04-24T01:19:42;14.60;11.10;
69224;PMS1003;56333;51.306;17.056;2023-04-24T01:21:12;14.10;11.30;
69224;PMS1003;56333;51.306;17.056;2023-04-24T01:22:43;14.20;11.20;
69224;PMS1003;56333;51.306;17.056;2023-04-24T01:24:12;14.40;11.40;
69224;PMS1003;56333;51.306;17.056;2023-04-24T01:25:41;15.70;12.10;
69224;PMS1003;56333;51.306;17.056;2023-04-24T01:27:10;15.40;11.70;
69224;PMS1003;56333;51.306;17.056;2023-04-24T01:28:39;14.90;11.80;
69224;PMS1003;56333;51.306;17.056;2023-04-24T01:30:11;16.00;12.40;
69224;PMS1003;56333;51.306;17.056;2023-04-24T01:31:41;16.10;12.70;
69224;PMS1003;56333;51.306;17.056;2023-04-24T01:33:10;15.90;13.00;
69224;PMS1003;56333;51.306;17.056;2023-04-24T01:34:39;15.40;11.80;
69224;PMS1003;56333;51.306;17.056;2023-04-24T01:36:09;14.80;12.30;
69224;PMS1003;56333;51.306;17.056;2023-04-24T01:37:39;16.30;12.40;
69224;PMS1003;56333;51.306;17.056;2023-04-24T01:39:08;15.60;12.10;
69224;PMS1003;56333;51.306;17.056;2023-04-24T01:40:38;17.30;12.70;
69224;PMS1003;56333;51.306;17.056;2023-04-24T01:42:08;17.10;13.00;
69224;PMS1003;56333;51.306;17.056;2023-04-24T01:43:37;17.40;12.80;
69224;PMS1003;56333;51.306;17.056;2023-04-24T01:45:10;18.00;12.80;
69224;PMS1003;56333;51.306;17.056;2023-04-24T01:46:39;16.70;12.70;
69224;PMS1003;56333;51.306;17.056;2023-04-24T01:48:08;15.70;12.50;
69224;PMS1003;56333;51.306;17.056;2023-04-24T01:49:39;14.20;12.00;
69224;PMS1003;56333;51.306;17.056;2023-04-24T01:51:07;16.90;13.00;
69224;PMS1003;56333;51.306;17.056;2023-04-24T01:52:37;18.80;15.20;
69224;PMS1003;56333;51.306;17.056;2023-04-24T01:54:06;19.50;15.20;
69224;PMS1003;56333;51.306;17.056;2023-04-24T01:55:35;17.50;13.30;
69224;PMS1003;56333;51.306;17.056;2023-04-24T01:57:04;16.00;13.20;
69224;PMS1003;56333;51.306;17.056;2023-04-24T01:58:34;17.00;13.00;
69224;PMS1003;56333;51.306;17.056;2023-04-24T02:00:04;16.80;13.20;
69224;PMS1003;56333;51.306;17.056;2023-04-24T02:01:40;18.90;14.90;
69224;PMS1003;56333;51.306;17.056;2023-04-24T02:03:09;18.50;13.90;
69224;PMS1003;56333;51.306;17.056;2023-04-24T02:04:39;16.40;13.00;
69224;PMS1003;56333;51.306;17.056;2023-04-24T02:06:08;20.00;13.30;
69224;PMS1003;56333;51.306;17.056;2023-04-24T02:07:37;17.20;12.90;
69224;PMS1003;56333;51.306;17.056;2023-04-24T02:09:06;17.00;13.10;
69224;PMS1003;56333;51.306;17.056;2023-04-24T02:10:35;16.60;13.10;
69224;PMS1003;56333;51.306;17.056;2023-04-24T02:12:04;16.30;13.20;
69224;PMS1003;56333;51.306;17.056;2023-04-24T02:13:33;18.20;14.00;
69224;PMS1003;56333;51.306;17.056;2023-04-24T02:15:03;18.70;13.70;
69224;PMS1003;56333;51.306;17.056;2023-04-24T02:16:33;17.20;14.00;
69224;PMS1003;56333;51.306;17.056;2023-04-24T02:18:02;15.50;13.00;
69224;PMS1003;56333;51.306;17.056;2023-04-24T02:19:32;18.30;14.20;
69224;PMS1003;56333;51.306;17.056;2023-04-24T02:21:02;17.40;14.20;
69224;PMS1003;56333;51.306;17.056;2023-04-24T02:22:31;18.10;14.40;
69224;PMS1003;56333;51.306;17.056;2023-04-24T02:24:01;18.20;14.50;
69224;PMS1003;56333;51.306;17.056;2023-04-24T02:25:30;19.00;14.80;
69224;PMS1003;56333;51.306;17.056;2023-04-24T02:26:58;17.60;14.40;
69224;PMS1003;56333;51.306;17.056;2023-04-24T02:28:28;19.70;14.30;
69224;PMS1003;56333;51.306;17.056;2023-04-24T02:29:57;19.30;14.10;
69224;PMS1003;56333;51.306;17.056;2023-04-24T02:31:27;16.70;13.60;
69224;PMS1003;56333;51.306;17.056;2023-04-24T02:32:55;16.90;14.00;
69224;PMS1003;56333;51.306;17.056;2023-04-24T02:34:24;19.20;13.70;
69224;PMS1003;56333;51.306;17.056;2023-04-24T02:35:54;19.80;13.80;
69224;PMS1003;56333;51.306;17.056;2023-04-24T02:37:23;16.40;12.40;
69224;PMS1003;56333;51.306;17.056;2023-04-24T02:38:52;16.90;13.40;
69224;PMS1003;56333;51.306;17.056;2023-04-24T02:40:21;16.70;13.10;
69224;PMS1003;56333;51.306;17.056;2023-04-24T02:41:51;19.30;13.00;
69224;PMS1003;56333;51.306;17.056;2023-04-24T02:43:20;17.60;13.90;
69224;PMS1003;56333;51.306;17.056;2023-04-24T02:44:49;20.20;14.50;
69224;PMS1003;56333;51.306;17.056;2023-04-24T02:46:18;20.00;14.20;
69224;PMS1003;56333;51.306;17.056;2023-04-24T02:47:47;18.10;13.50;
69224;PMS1003;56333;51.306;17.056;2023-04-24T02:49:16;17.60;14.20;
69224;PMS1003;56333;51.306;17.056;2023-04-24T02:50:46;21.10;14.40;
69224;PMS1003;56333;51.306;17.056;2023-04-24T02:52:16;18.80;13.50;
69224;PMS1003;56333;51.306;17.056;2023-04-24T02:53:46;19.60;14.90;
69224;PMS1003;56333;51.306;17.056;2023-04-24T02:55:15;19.50;14.10;
69224;PMS1003;56333;51.306;17.056;2023-04-24T02:56:44;18.30;14.40;
69224;PMS1003;56333;51.306;17.056;2023-04-24T02:58:13;17.80;14.00;
69224;PMS1003;56333;51.306;17.056;2023-04-24T02:59:43;19.50;14.10;
69224;PMS1003;56333;51.306;17.056;2023-04-24T03:01:12;17.60;13.40;
69224;PMS1003;56333;51.306;17.056;2023-04-24T03:02:42;16.50;13.40;
69224;PMS1003;56333;51.306;17.056;2023-04-24T03:04:11;19.70;13.50;
69224;PMS1003;56333;51.306;17.056;2023-04-24T03:05:41;19.40;14.00;
69224;PMS1003;56333;51.306;17.056;2023-04-24T03:07:10;18.00;13.90;
69224;PMS1003;56333;51.306;17.056;2023-04-24T03:08:40;19.10;13.90;
69224;PMS1003;56333;51.306;17.056;2023-04-24T03:10:11;17.80;13.30;
69224;PMS1003;56333;51.306;17.056;2023-04-24T03:11:41;17.10;13.40;
69224;PMS1003;56333;51.306;17.056;2023-04-24T03:13:10;17.00;13.00;
69224;PMS1003;56333;51.306;17.056;2023-04-24T03:14:39;16.70;13.60;
69224;PMS1003;56333;51.306;17.056;2023-04-24T03:16:08;19.20;13.90;
69224;PMS1003;56333;51.306;17.056;2023-04-24T03:17:37;17.70;15.00;
69224;PMS1003;56333;51.306;17.056;2023-04-24T03:19:07;17.30;13.40;
69224;PMS1003;56333;51.306;17.056;2023-04-24T03:20:41;14.70;12.20;
69224;PMS1003;56333;51.306;17.056;2023-04-24T03:22:10;16.20;12.40;
69224;PMS1003;56333;51.306;17.056;2023-04-24T03:23:39;16.90;12.70;
69224;PMS1003;56333;51.306;17.056;2023-04-24T03:25:10;16.80;13.80;
69224;PMS1003;56333;51.306;17.056;2023-04-24T03:26:40;15.00;12.40;
69224;PMS1003;56333;51.306;17.056;2023-04-24T03:28:55;17.70;13.30;
69224;PMS1003;56333;51.306;17.056;2023-04-24T03:30:24;15.10;12.40;
69224;PMS1003;56333;51.306;17.056;2023-04-24T03:31:57;15.70;11.80;
69224;PMS1003;56333;51.306;17.056;2023-04-24T03:33:27;16.40;12.00;
69224;PMS1003;56333;51.306;17.056;2023-04-24T03:35:00;16.40;13.00;
69224;PMS1003;56333;51.306;17.056;2023-04-24T03:36:29;17.00;13.40;
69224;PMS1003;56333;51.306;17.056;2023-04-24T03:37:58;16.10;12.10;
69224;PMS1003;56333;51.306;17.056;2023-04-24T03:39:42;17.20;13.60;
69224;PMS1003;56333;51.306;17.056;2023-04-24T03:41:11;16.80;12.80;
69224;PMS1003;56333;51.306;17.056;2023-04-24T03:42:45;16.30;13.10;
69224;PMS1003;56333;51.306;17.056;2023-04-24T03:44:16;17.70;13.20;
69224;PMS1003;56333;51.306;17.056;2023-04-24T03:45:45;17.60;13.70;
69224;PMS1003;56333;51.306;17.056;2023-04-24T03:47:15;18.10;14.00;
69224;PMS1003;56333;51.306;17.056;2023-04-24T03:48:45;19.10;14.00;
69224;PMS1003;56333;51.306;17.056;2023-04-24T03:50:16;19.00;14.30;
69224;PMS1003;56333;51.306;17.056;2023-04-24T03:51:45;17.80;13.10;
69224;PMS1003;56333;51.306;17.056;2023-04-24T03:53:21;17.30;13.20;
69224;PMS1003;56333;51.306;17.056;2023-04-24T03:54:50;19.50;13.80;
69224;PMS1003;56333;51.306;17.056;2023-04-24T03:56:19;18.60;13.10;
69224;PMS1003;56333;51.306;17.056;2023-04-24T03:57:49;19.50;13.90;
69224;PMS1003;56333;51.306;17.056;2023-04-24T03:59:21;16.50;13.50;
69224;PMS1003;56333;51.306;17.056;2023-04-24T04:01:01;18.30;12.50;
69224;PMS1003;56333;51.306;17.056;2023-04-24T04:02:40;18.70;13.10;
69224;PMS1003;56333;51.306;17.056;2023-04-24T04:04:08;18.10;13.40;
69224;PMS1003;56333;51.306;17.056;2023-04-24T04:05:37;18.70;12.80;
69224;PMS1003;56333;51.306;17.056;2023-04-24T04:07:07;16.20;12.70;
69224;PMS1003;56333;51.306;17.056;2023-04-24T04:08:37;18.80;12.90;
69224;PMS1003;56333;51.306;17.056;2023-04-24T04:10:08;16.90;13.30;
69224;PMS1003;56333;51.306;17.056;2023-04-24T04:11:37;15.40;12.30;
69224;PMS1003;56333;51.306;17.056;2023-04-24T04:13:06;15.30;12.10;
69224;PMS1003;56333;51.306;17.056;2023-04-24T04:14:35;15.50;12.10;
69224;PMS1003;56333;51.306;17.056;2023-04-24T04:16:04;17.50;12.40;
69224;PMS1003;56333;51.306;17.056;2023-04-24T04:17:33;16.80;12.90;
69224;PMS1003;56333;51.306;17.056;2023-04-24T04:19:04;16.60;12.50;
69224;PMS1003;56333;51.306;17.056;2023-04-24T04:20:34;17.30;13.60;
69224;PMS1003;56333;51.306;17.056;2023-04-24T04:22:02;17.40;12.90;
69224;PMS1003;56333;51.306;17.056;2023-04-24T04:23:42;18.80;12.90;
69224;PMS1003;56333;51.306;17.056;2023-04-24T04:25:18;15.10;12.20;
69224;PMS1003;56333;51.306;17.056;2023-04-24T04:26:46;17.80;12.50;
69224;PMS1003;56333;51.306;17.056;2023-04-24T04:28:29;15.80;12.50;
69224;PMS1003;56333;51.306;17.056;2023-04-24T04:29:58;18.10;12.90;
69224;PMS1003;56333;51.306;17.056;2023-04-24T04:31:31;17.50;12.30;
69224;PMS1003;56333;51.306;17.056;2023-04-24T04:33:04;15.80;12.30;
69224;PMS1003;56333;51.306;17.056;2023-04-24T04:34:33;14.40;12.20;
69224;PMS1003;56333;51.306;17.056;2023-04-24T04:36:04;15.60;12.10;
69224;PMS1003;56333;51.306;17.056;2023-04-24T04:39:18;16.10;12.60;
69224;PMS1003;56333;51.306;17.056;2023-04-24T04:40:57;16.20;12.00;
69224;PMS1003;56333;51.306;17.056;2023-04-24T04:42:27;15.90;11.40;
69224;PMS1003;56333;51.306;17.056;2023-04-24T04:43:57;15.80;11.70;
69224;PMS1003;56333;51.306;17.056;2023-04-24T04:45:27;16.10;11.90;
69224;PMS1003;56333;51.306;17.056;2023-04-24T04:47:15;18.40;12.50;
69224;PMS1003;56333;51.306;17.056;2023-04-24T04:48:45;18.80;12.80;
69224;PMS1003;56333;51.306;17.056;2023-04-24T04:50:14;19.30;12.20;
69224;PMS1003;56333;51.306;17.056;2023-04-24T04:51:45;16.60;12.50;
69224;PMS1003;56333;51.306;17.056;2023-04-24T04:53:15;16.20;12.00;
69224;PMS1003;56333;51.306;17.056;2023-04-24T04:54:43;16.00;12.40;
69224;PMS1003;56333;51.306;17.056;2023-04-24T04:56:12;16.50;12.00;
69224;PMS1003;56333;51.306;17.056;2023-04-24T04:57:45;18.00;12.30;
69224;PMS1003;56333;51.306;17.056;2023-04-24T04:59:16;14.50;11.30;
69224;PMS1003;56333;51.306;17.056;2023-04-24T05:00:50;18.00;11.40;
69224;PMS1003;56333;51.306;17.056;2023-04-24T05:02:36;12.90;11.40;
69224;PMS1003;56333;51.306;17.056;2023-04-24T05:04:08;19.70;11.80;
69224;PMS1003;56333;51.306;17.056;2023-04-24T05:05:42;14.20;11.00;
69224;PMS1003;56333;51.306;17.056;2023-04-24T05:07:21;14.50;11.20;
69224;PMS1003;56333;51.306;17.056;2023-04-24T05:08:55;16.60;12.10;
69224;PMS1003;56333;51.306;17.056;2023-04-24T05:11:11;15.00;11.70;
69224;PMS1003;56333;51.306;17.056;2023-04-24T05:12:44;15.10;11.60;
69224;PMS1003;56333;51.306;17.056;2023-04-24T05:14:16;14.30;11.30;
69224;PMS1003;56333;51.306;17.056;2023-04-24T05:15:46;17.10;11.70;
69224;PMS1003;56333;51.306;17.056;2023-04-24T05:17:16;14.80;11.90;
69224;PMS1003;56333;51.306;17.056;2023-04-24T05:18:45;16.40;11.70;
69224;PMS1003;56333;51.306;17.056;2023-04-24T05:20:16;15.30;12.40;
69224;PMS1003;56333;51.306;17.056;2023-04-24T05:21:46;15.50;12.20;
69224;PMS1003;56333;51.306;17.056;2023-04-24T05:23:16;14.80;11.50;
69224;PMS1003;56333;51.306;17.056;2023-04-24T05:24:51;14.50;11.50;
69224;PMS1003;56333;51.306;17.056;2023-04-24T05:27:08;15.00;12.10;
69224;PMS1003;56333;51.306;17.056;2023-04-24T05:28:44;14.50;11.30;
69224;PMS1003;56333;51.306;17.056;2023-04-24T05:30:19;17.00;12.20;
69224;PMS1003;56333;51.306;17.056;2023-04-24T05:31:49;14.30;11.70;
69224;PMS1003;56333;51.306;17.056;2023-04-24T05:33:23;16.90;12.00;
69224;PMS1003;56333;51.306;17.056;2023-04-24T05:34:56;14.90;12.00;
69224;PMS1003;56333;51.306;17.056;2023-04-24T05:36:42;15.70;11.80;
69224;PMS1003;56333;51.306;17.056;2023-04-24T05:38:16;18.00;12.40;
69224;PMS1003;56333;51.306;17.056;2023-04-24T05:40:12;16.50;11.90;
69224;PMS1003;56333;51.306;17.056;2023-04-24T05:41:46;14.80;11.50;
69224;PMS1003;56333;51.306;17.056;2023-04-24T05:43:18;15.20;11.80;
69224;PMS1003;56333;51.306;17.056;2023-04-24T05:44:50;16.00;11.90;
69224;PMS1003;56333;51.306;17.056;2023-04-24T05:46:24;15.70;12.10;
69224;PMS1003;56333;51.306;17.056;2023-04-24T05:47:57;14.30;11.40;
69224;PMS1003;56333;51.306;17.056;2023-04-24T05:49:32;14.70;11.20;
69224;PMS1003;56333;51.306;17.056;2023-04-24T05:51:05;16.50;11.80;
69224;PMS1003;56333;51.306;17.056;2023-04-24T05:52:35;14.30;11.70;
69224;PMS1003;56333;51.306;17.056;2023-04-24T05:54:11;15.00;11.30;
69224;PMS1003;56333;51.306;17.056;2023-04-24T05:55:43;15.10;11.60;
69224;PMS1003;56333;51.306;17.056;2023-04-24T05:57:13;14.70;11.40;
69224;PMS1003;56333;51.306;17.056;2023-04-24T05:58:51;11.20;9.10;
69224;PMS1003;56333;51.306;17.056;2023-04-24T06:00:21;16.20;13.00;
69224;PMS1003;56333;51.306;17.056;2023-04-24T06:01:53;18.50;12.00;
69224;PMS1003;56333;51.306;17.056;2023-04-24T06:03:23;15.70;12.20;
69224;PMS1003;56333;51.306;17.056;2023-04-24T06:04:53;15.80;11.90;
69224;PMS1003;56333;51.306;17.056;2023-04-24T06:06:24;15.40;11.60;
69224;PMS1003;56333;51.306;17.056;2023-04-24T06:07:55;15.30;11.50;
69224;PMS1003;56333;51.306;17.056;2023-04-24T06:09:26;15.20;11.70;
69224;PMS1003;56333;51.306;17.056;2023-04-24T06:10:58;15.80;11.90;
69224;PMS1003;56333;51.306;17.056;2023-04-24T06:12:28;15.50;11.60;
69224;PMS1003;56333;51.306;17.056;2023-04-24T06:14:01;14.40;11.60;
69224;PMS1003;56333;51.306;17.056;2023-04-24T06:15:36;16.70;12.00;
69224;PMS1003;56333;51.306;17.056;2023-04-24T06:17:10;15.60;12.50;
69224;PMS1003;56333;51.306;17.056;2023-04-24T06:18:39;16.50;12.30;
69224;PMS1003;56333;51.306;17.056;2023-04-24T06:20:10;18.00;12.20;
69224;PMS1003;56333;51.306;17.056;2023-04-24T06:21:39;13.70;12.00;
69224;PMS1003;56333;51.306;17.056;2023-04-24T06:23:08;15.30;11.60;
69224;PMS1003;56333;51.306;17.056;2023-04-24T06:24:37;15.00;11.50;
69224;PMS1003;56333;51.306;17.056;2023-04-24T06:26:06;18.40;12.70;
69224;PMS1003;56333;51.306;17.056;2023-04-24T06:27:35;15.60;12.20;
69224;PMS1003;56333;51.306;17.056;2023-04-24T06:29:04;17.00;12.50;
69224;PMS1003;56333;51.306;17.056;2023-04-24T06:30:42;14.90;12.10;
69224;PMS1003;56333;51.306;17.056;2023-04-24T06:32:26;14.00;11.30;
69224;PMS1003;56333;51.306;17.056;2023-04-24T06:33:59;16.80;12.00;
69224;PMS1003;56333;51.306;17.056;2023-04-24T06:35:28;14.80;11.80;
69224;PMS1003;56333;51.306;17.056;2023-04-24T06:36:57;16.00;12.40;
69224;PMS1003;56333;51.306;17.056;2023-04-24T06:38:26;16.10;11.30;
69224;PMS1003;56333;51.306;17.056;2023-04-24T06:39:56;16.30;11.40;
69224;PMS1003;56333;51.306;17.056;2023-04-24T06:41:25;15.50;12.50;
69224;PMS1003;56333;51.306;17.056;2023-04-24T06:42:55;15.90;11.70;
69224;PMS1003;56333;51.306;17.056;2023-04-24T06:44:26;13.30;11.00;
69224;PMS1003;56333;51.306;17.056;2023-04-24T06:45:56;13.00;11.10;
69224;PMS1003;56333;51.306;17.056;2023-04-24T06:47:26;14.50;10.20;
69224;PMS1003;56333;51.306;17.056;2023-04-24T06:48:55;11.70;10.20;
69224;PMS1003;56333;51.306;17.056;2023-04-24T06:50:25;16.20;10.60;
69224;PMS1003;56333;51.306;17.056;2023-04-24T06:51:54;13.20;11.00;
69224;PMS1003;56333;51.306;17.056;2023-04-24T06:53:24;13.70;10.00;
69224;PMS1003;56333;51.306;17.056;2023-04-24T06:54:53;13.40;9.80;
69224;PMS1003;56333;51.306;17.056;2023-04-24T06:56:29;13.70;9.50;
69224;PMS1003;56333;51.306;17.056;2023-04-24T06:58:00;13.60;10.00;
69224;PMS1003;56333;51.306;17.056;2023-04-24T06:59:29;13.50;9.50;
69224;PMS1003;56333;51.306;17.056;2023-04-24T07:00:58;12.50;9.70;
69224;PMS1003;56333;51.306;17.056;2023-04-24T07:02:27;11.40;9.70;
69224;PMS1003;56333;51.306;17.056;2023-04-24T07:03:57;12.70;9.50;
69224;PMS1003;56333;51.306;17.056;2023-04-24T07:05:27;12.70;10.00;
69224;PMS1003;56333;51.306;17.056;2023-04-24T07:06:56;14.30;9.60;
69224;PMS1003;56333;51.306;17.056;2023-04-24T07:08:25;13.20;9.40;
69224;PMS1003;56333;51.306;17.056;2023-04-24T07:09:57;12.00;9.90;
69224;PMS1003;56333;51.306;17.056;2023-04-24T07:11:26;12.80;9.50;
69224;PMS1003;56333;51.306;17.056;2023-04-24T07:12:55;12.60;10.20;
69224;PMS1003;56333;51.306;17.056;2023-04-24T07:14:24;12.80;9.50;
69224;PMS1003;56333;51.306;17.056;2023-04-24T07:15:53;12.30;9.00;
69224;PMS1003;56333;51.306;17.056;2023-04-24T07:17:22;11.30;8.80;
69224;PMS1003;56333;51.306;17.056;2023-04-24T07:18:51;11.40;9.10;
69224;PMS1003;56333;51.306;17.056;2023-04-24T07:20:20;11.80;9.00;
69224;PMS1003;56333;51.306;17.056;2023-04-24T07:21:50;10.70;9.30;
69224;PMS1003;56333;51.306;17.056;2023-04-24T07:23:20;10.00;8.80;
69224;PMS1003;56333;51.306;17.056;2023-04-24T07:24:50;12.20;9.40;
69224;PMS1003;56333;51.306;17.056;2023-04-24T07:26:19;11.70;9.40;
69224;PMS1003;56333;51.306;17.056;2023-04-24T07:27:48;11.80;9.20;
69224;PMS1003;56333;51.306;17.056;2023-04-24T07:29:17;11.70;8.80;
69224;PMS1003;56333;51.306;17.056;2023-04-24T07:30:46;9.70;8.30;
69224;PMS1003;56333;51.306;17.056;2023-04-24T07:32:15;11.20;8.30;
69224;PMS1003;56333;51.306;17.056;2023-04-24T07:33:45;9.90;8.20;
69224;PMS1003;56333;51.306;17.056;2023-04-24T07:35:14;11.80;8.30;
69224;PMS1003;56333;51.306;17.056;2023-04-24T07:36:44;9.50;7.60;
69224;PMS1003;56333;51.306;17.056;2023-04-24T07:38:14;9.90;7.50;
69224;PMS1003;56333;51.306;17.056;2023-04-24T07:39:43;9.70;8.30;
69224;PMS1003;56333;51.306;17.056;2023-04-24T07:41:12;12.60;8.80;
69224;PMS1003;56333;51.306;17.056;2023-04-24T07:42:41;10.90;8.20;
69224;PMS1003;56333;51.306;17.056;2023-04-24T07:44:11;11.70;8.10;
69224;PMS1003;56333;51.306;17.056;2023-04-24T07:45:40;9.70;7.90;
69224;PMS1003;56333;51.306;17.056;2023-04-24T07:47:09;10.10;7.90;
69224;PMS1003;56333;51.306;17.056;2023-04-24T07:48:38;9.60;7.80;
69224;PMS1003;56333;51.306;17.056;2023-04-24T07:50:09;10.10;7.80;
69224;PMS1003;56333;51.306;17.056;2023-04-24T07:51:39;8.70;7.60;
69224;PMS1003;56333;51.306;17.056;2023-04-24T07:53:08;10.40;7.60;
69224;PMS1003;56333;51.306;17.056;2023-04-24T07:54:36;9.80;7.60;
69224;PMS1003;56333;51.306;17.056;2023-04-24T07:56:05;9.60;7.10;
69224;PMS1003;56333;51.306;17.056;2023-04-24T07:57:34;7.90;6.70;
69224;PMS1003;56333;51.306;17.056;2023-04-24T07:59:04;7.50;5.90;
69224;PMS1003;56333;51.306;17.056;2023-04-24T08:00:33;8.80;6.60;
69224;PMS1003;56333;51.306;17.056;2023-04-24T08:02:02;8.40;6.80;
69224;PMS1003;56333;51.306;17.056;2023-04-24T08:03:31;7.70;6.10;
69224;PMS1003;56333;51.306;17.056;2023-04-24T08:05:00;6.30;5.70;
69224;PMS1003;56333;51.306;17.056;2023-04-24T08:06:30;7.70;5.90;
69224;PMS1003;56333;51.306;17.056;2023-04-24T08:07:59;8.50;6.00;
69224;PMS1003;56333;51.306;17.056;2023-04-24T08:09:28;6.90;5.50;
69224;PMS1003;56333;51.306;17.056;2023-04-24T08:10:57;5.50;4.80;
69224;PMS1003;56333;51.306;17.056;2023-04-24T08:12:27;5.00;4.30;
69224;PMS1003;56333;51.306;17.056;2023-04-24T08:13:56;5.70;4.50;
69224;PMS1003;56333;51.306;17.056;2023-04-24T08:15:25;6.30;4.60;
69224;PMS1003;56333;51.306;17.056;2023-04-24T08:16:55;5.90;4.30;
69224;PMS1003;56333;51.306;17.056;2023-04-24T08:18:26;5.60;4.10;
69224;PMS1003;56333;51.306;17.056;2023-04-24T08:19:55;5.90;3.80;
69224;PMS1003;56333;51.306;17.056;2023-04-24T08:21:27;5.40;3.90;
69224;PMS1003;56333;51.306;17.056;2023-04-24T08:22:56;5.20;4.10;
69224;PMS1003;56333;51.306;17.056;2023-04-24T08:24:24;5.10;4.20;
69224;PMS1003;56333;51.306;17.056;2023-04-24T08:25:53;5.50;4.30;
69224;PMS1003;56333;51.306;17.056;2023-04-24T08:27:23;5.60;4.40;
69224;PMS1003;56333;51.306;17.056;2023-04-24T08:28:52;5.70;4.70;
69224;PMS1003;56333;51.306;17.056;2023-04-24T08:30:21;6.00;4.50;
69224;PMS1003;56333;51.306;17.056;2023-04-24T08:31:50;5.10;4.30;
69224;PMS1003;56333;51.306;17.056;2023-04-24T08:33:21;6.00;4.60;
69224;PMS1003;56333;51.306;17.056;2023-04-24T08:34:50;6.50;5.40;
69224;PMS1003;56333;51.306;17.056;2023-04-24T08:36:19;7.00;5.50;
69224;PMS1003;56333;51.306;17.056;2023-04-24T08:37:48;7.40;5.80;
69224;PMS1003;56333;51.306;17.056;2023-04-24T08:39:18;6.40;4.60;
69224;PMS1003;56333;51.306;17.056;2023-04-24T08:40:48;5.80;4.50;
69224;PMS1003;56333;51.306;17.056;2023-04-24T08:42:18;7.10;4.50;
69224;PMS1003;56333;51.306;17.056;2023-04-24T08:43:49;5.10;4.40;
69224;PMS1003;56333;51.306;17.056;2023-04-24T08:45:19;5.50;4.60;
69224;PMS1003;56333;51.306;17.056;2023-04-24T08:46:48;6.80;4.60;
69224;PMS1003;56333;51.306;17.056;2023-04-24T08:48:18;6.80;4.70;
69224;PMS1003;56333;51.306;17.056;2023-04-24T08:49:49;5.90;4.50;
69224;PMS1003;56333;51.306;17.056;2023-04-24T08:51:19;5.80;4.70;
69224;PMS1003;56333;51.306;17.056;2023-04-24T08:52:48;5.30;4.40;
69224;PMS1003;56333;51.306;17.056;2023-04-24T08:54:19;5.80;4.60;
69224;PMS1003;56333;51.306;17.056;2023-04-24T08:55:50;6.20;4.40;
69224;PMS1003;56333;51.306;17.056;2023-04-24T08:57:19;7.10;5.00;
69224;PMS1003;56333;51.306;17.056;2023-04-24T08:58:50;5.90;4.60;
69224;PMS1003;56333;51.306;17.056;2023-04-24T09:00:21;6.10;4.50;
69224;PMS1003;56333;51.306;17.056;2023-04-24T09:01:52;4.90;4.30;
69224;PMS1003;56333;51.306;17.056;2023-04-24T09:04:50;5.50;4.50;
69224;PMS1003;56333;51.306;17.056;2023-04-24T09:06:19;5.90;4.30;
69224;PMS1003;56333;51.306;17.056;2023-04-24T09:07:55;6.00;4.30;